Time;durP1;ratioP1;P1;durP2;ratioP2;P2;SDS_P1;SDS_P2;PMS_P1;PMS_P2;Temp;Humidity;BMP_temperature;BMP_pressure;BME280_temperature;BME280_humidity;BME280_pressure;Samples;Min_cycle;Max_cycle;Signal;HPM_P1;HPM_P2
2021/12/14 00:01:55;;;;;;;22.33;11.85;;;;;;;;;;5092531;28;20030;-74
2021/12/14 00:04:31;;;;;;;20.50;10.95;;;;;;;;;;5092514;28;20043;-75
2021/12/14 00:06:58;;;;;;;20.67;10.55;;;;;;;;;;5092392;28;20105;-76
2021/12/14 00:09:35;;;;;;;16.77;9.38;;;;;;;;;;5109351;28;20051;-75
2021/12/14 00:17:26;;;;;;;17.77;9.45;;;;;;;;;;5113956;28;20015;-73
2021/12/14 00:19:54;;;;;;;17.40;9.70;;;;;;;;;;5095656;28;20457;-75
2021/12/14 00:25:08;;;;;;;19.27;9.25;;;;;;;;;;5082042;28;20047;-75
2021/12/14 00:27:34;;;;;;;15.55;8.25;;;;;;;;;;5113902;28;20383;-74
2021/12/14 00:30:05;;;;;;;16.40;8.63;;;;;;;;;;5113777;28;20483;-74
2021/12/14 00:32:34;;;;;;;16.75;7.63;;;;;;;;;;5113818;28;20028;-74
2021/12/14 00:35:03;;;;;;;14.57;7.88;;;;;;;;;;5113703;28;20019;-75
2021/12/14 00:37:34;;;;;;;13.90;8.02;;;;;;;;;;5095461;28;20057;-72
2021/12/14 00:40:04;;;;;;;14.38;8.13;;;;;;;;;;5113740;28;20023;-75
2021/12/14 00:42:30;;;;;;;15.25;7.95;;;;;;;;;;5113664;28;20026;-75
2021/12/14 00:44:57;;;;;;;15.40;8.05;;;;;;;;;;5113676;28;20053;-75
2021/12/14 00:47:23;;;;;;;16.10;8.57;;;;;;;;;;5095379;28;20056;-74
2021/12/14 00:49:52;;;;;;;17.33;9.52;;;;;;;;;;5095389;28;20051;-75
2021/12/14 00:52:18;;;;;;;25.33;12.15;;;;;;;;;;5113620;28;20059;-75
2021/12/14 00:54:47;;;;;;;18.88;10.75;;;;;;;;;;5113674;28;20027;-74
2021/12/14 00:57:14;;;;;;;19.42;10.55;;;;;;;;;;5113577;28;20024;-74
2021/12/14 00:59:40;;;;;;;18.88;9.55;;;;;;;;;;5095270;28;20024;-76
2021/12/14 01:02:17;;;;;;;17.00;9.70;;;;;;;;;;5114401;28;20047;-73
2021/12/14 01:04:47;;;;;;;18.27;9.90;;;;;;;;;;5095237;28;20463;-76
2021/12/14 01:07:15;;;;;;;21.85;10.73;;;;;;;;;;5095249;28;20031;-75
2021/12/14 01:09:43;;;;;;;22.95;11.35;;;;;;;;;;5113209;28;20097;-74
2021/12/14 01:12:15;;;;;;;22.70;11.50;;;;;;;;;;5095148;28;20076;-76
2021/12/14 01:14:50;;;;;;;25.20;12.88;;;;;;;;;;5114007;28;20020;-75
2021/12/14 01:17:28;;;;;;;21.60;11.50;;;;;;;;;;5114014;28;20016;-76
2021/12/14 01:19:59;;;;;;;20.70;10.48;;;;;;;;;;5113917;28;20031;-75
2021/12/14 01:22:58;;;;;;;24.90;12.50;;;;;;;;;;5096595;28;20080;-76
2021/12/14 01:25:22;;;;;;;22.00;12.10;;;;;;;;;;5116310;28;20036;-74
2021/12/14 01:27:48;;;;;;;22.23;12.45;;;;;;;;;;5098778;28;20618;-76
2021/12/14 01:30:27;;;;;;;21.77;11.57;;;;;;;;;;5117660;28;20126;-75
2021/12/14 01:32:55;;;;;;;20.90;11.00;;;;;;;;;;5098826;28;20027;-76
2021/12/14 01:35:26;;;;;;;23.30;12.15;;;;;;;;;;5098704;28;20499;-75
2021/12/14 01:38:01;;;;;;;24.48;11.15;;;;;;;;;;5117258;28;20020;-73
2021/12/14 01:41:16;;;;;;;21.27;10.60;;;;;;;;;;5098627;28;20385;-75
2021/12/14 01:43:18;;;;;;;18.02;10.13;;;;;;;;;;5102481;28;20459;-75
2021/12/14 01:45:44;;;;;;;22.35;11.57;;;;;;;;;;5116633;28;20175;-73
2021/12/14 01:48:10;;;;;;;22.58;10.93;;;;;;;;;;5098377;28;20114;-74
2021/12/14 01:50:39;;;;;;;23.00;11.88;;;;;;;;;;5116580;28;20032;-74
2021/12/14 01:53:05;;;;;;;25.20;11.75;;;;;;;;;;5099101;28;20081;-72
2021/12/14 01:55:33;;;;;;;30.42;15.02;;;;;;;;;;5098233;28;20052;-74
2021/12/14 01:58:00;;;;;;;25.63;13.05;;;;;;;;;;5098186;28;20115;-73
2021/12/14 02:00:38;;;;;;;26.92;13.52;;;;;;;;;;5098055;28;20034;-75
2021/12/14 02:03:06;;;;;;;33.65;16.92;;;;;;;;;;5116502;28;20031;-74
2021/12/14 02:05:44;;;;;;;38.60;18.35;;;;;;;;;;5116896;28;20111;-74
2021/12/14 02:08:15;;;;;;;25.77;13.45;;;;;;;;;;5094435;28;20050;-74
2021/12/14 02:10:42;;;;;;;29.25;14.02;;;;;;;;;;5094563;28;20031;-73
2021/12/14 02:13:08;;;;;;;44.10;21.17;;;;;;;;;;5094590;28;20455;-74
2021/12/14 02:15:36;;;;;;;121.32;47.38;;;;;;;;;;5096374;28;20032;-72
2021/12/14 02:18:07;;;;;;;96.88;40.22;;;;;;;;;;5077630;28;20062;-73
2021/12/14 02:20:37;;;;;;;68.05;29.52;;;;;;;;;;5094422;28;20052;-74
2021/12/14 02:23:03;;;;;;;51.03;23.60;;;;;;;;;;5095635;28;20031;-73
2021/12/14 02:25:30;;;;;;;57.92;26.65;;;;;;;;;;5096079;28;20039;-74
2021/12/14 02:27:57;;;;;;;51.35;24.45;;;;;;;;;;5094259;28;20024;-75
2021/12/14 02:30:25;;;;;;;37.28;17.60;;;;;;;;;;5095616;28;20024;-74
2021/12/14 02:32:52;;;;;;;30.98;15.38;;;;;;;;;;5094193;28;20020;-76
2021/12/14 02:35:21;;;;;;;31.65;16.10;;;;;;;;;;5094717;28;20024;-73
2021/12/14 02:37:50;;;;;;;31.15;16.95;;;;;;;;;;5093981;28;20031;-75
2021/12/14 02:40:53;;;;;;;26.27;13.77;;;;;;;;;;5095732;28;20112;-75
2021/12/14 02:43:17;;;;;;;25.42;13.35;;;;;;;;;;5095357;28;20036;-74
2021/12/14 02:45:43;;;;;;;47.72;22.08;;;;;;;;;;5093799;28;20028;-74
2021/12/14 02:48:11;;;;;;;25.00;13.43;;;;;;;;;;5094603;28;20448;-74
2021/12/14 02:50:37;;;;;;;23.48;11.82;;;;;;;;;;5095416;28;20051;-73
2021/12/14 02:53:04;;;;;;;22.08;11.38;;;;;;;;;;5093851;28;20036;-75
2021/12/14 02:55:31;;;;;;;39.65;19.70;;;;;;;;;;5094996;28;20043;-75
2021/12/14 02:57:59;;;;;;;30.50;14.60;;;;;;;;;;5095180;28;20032;-75
2021/12/14 03:00:29;;;;;;;28.40;15.15;;;;;;;;;;5093482;28;20027;-75
2021/12/14 03:02:56;;;;;;;24.77;13.73;;;;;;;;;;5094914;28;20028;-74
2021/12/14 03:05:25;;;;;;;26.23;13.88;;;;;;;;;;5093380;28;20024;-75
2021/12/14 03:07:56;;;;;;;26.88;14.30;;;;;;;;;;5096736;28;20334;-74
2021/12/14 03:10:38;;;;;;;28.25;14.43;;;;;;;;;;5096896;28;20023;-74
2021/12/14 03:13:07;;;;;;;28.83;14.00;;;;;;;;;;5096781;28;20024;-74
2021/12/14 03:15:47;;;;;;;27.10;14.73;;;;;;;;;;5096719;28;20059;-75
2021/12/14 03:18:15;;;;;;;24.25;12.30;;;;;;;;;;5115566;28;20019;-74
2021/12/14 03:20:46;;;;;;;22.17;11.23;;;;;;;;;;5096599;28;20019;-73
2021/12/14 03:23:17;;;;;;;20.35;10.82;;;;;;;;;;5115157;28;20027;-74
2021/12/14 03:25:45;;;;;;;22.58;11.95;;;;;;;;;;5114772;28;20588;-73
2021/12/14 03:28:13;;;;;;;23.70;12.55;;;;;;;;;;5096658;28;20030;-74
2021/12/14 03:30:50;;;;;;;24.33;13.45;;;;;;;;;;5096496;28;20148;-74
2021/12/14 03:33:22;;;;;;;22.63;12.38;;;;;;;;;;5096369;28;20110;-74
2021/12/14 03:35:55;;;;;;;30.67;15.43;;;;;;;;;;5096668;28;20027;-74
2021/12/14 03:38:24;;;;;;;32.43;15.67;;;;;;;;;;5096276;28;20023;-73
2021/12/14 03:40:55;;;;;;;23.60;12.43;;;;;;;;;;5096253;28;20265;-76
2021/12/14 03:43:22;;;;;;;23.48;13.10;;;;;;;;;;5096115;28;20108;-74
2021/12/14 03:45:48;;;;;;;25.95;13.52;;;;;;;;;;5113716;28;20127;-74
2021/12/14 03:48:14;;;;;;;23.35;12.98;;;;;;;;;;5114383;28;20023;-73
2021/12/14 03:50:42;;;;;;;23.25;12.77;;;;;;;;;;5096009;28;20016;-73
2021/12/14 03:53:10;;;;;;;23.67;12.55;;;;;;;;;;5095985;28;20034;-75
2021/12/14 03:55:39;;;;;;;21.27;11.80;;;;;;;;;;5114236;28;20020;-74
2021/12/14 03:58:09;;;;;;;23.65;12.27;;;;;;;;;;5096062;28;20368;-76
2021/12/14 04:00:38;;;;;;;18.98;10.68;;;;;;;;;;5095848;28;20057;-73
2021/12/14 04:03:06;;;;;;;21.77;11.18;;;;;;;;;;5114156;28;20038;-74
2021/12/14 04:05:35;;;;;;;20.85;11.75;;;;;;;;;;5095713;28;20028;-74
2021/12/14 04:08:01;;;;;;;20.35;12.00;;;;;;;;;;5114518;28;20047;-74
2021/12/14 04:10:31;;;;;;;17.27;10.52;;;;;;;;;;5114533;28;20026;-75
2021/12/14 04:12:58;;;;;;;19.63;10.35;;;;;;;;;;5096464;28;20069;-76
2021/12/14 04:15:25;;;;;;;19.00;11.07;;;;;;;;;;5114466;28;20478;-76
2021/12/14 04:17:52;;;;;;;17.98;10.38;;;;;;;;;;5113942;28;20499;-75
2021/12/14 04:20:20;;;;;;;21.67;11.27;;;;;;;;;;5114450;28;20036;-74
2021/12/14 04:22:48;;;;;;;19.48;10.70;;;;;;;;;;5095535;28;20388;-76
2021/12/14 04:25:19;;;;;;;21.70;10.95;;;;;;;;;;5113731;28;20026;-76
2021/12/14 04:27:46;;;;;;;19.73;11.07;;;;;;;;;;5095563;28;20055;-76
2021/12/14 04:30:14;;;;;;;21.05;10.80;;;;;;;;;;5113990;28;20023;-76
2021/12/14 04:32:41;;;;;;;20.08;10.55;;;;;;;;;;5095492;28;20031;-74
2021/12/14 04:35:09;;;;;;;21.58;11.20;;;;;;;;;;5113715;28;20039;-75
2021/12/14 04:37:39;;;;;;;19.33;10.75;;;;;;;;;;5095501;28;20030;-74
2021/12/14 04:51:54;;;;;;;18.73;10.25;;;;;;;;;;5095437;28;20041;-74
2021/12/14 04:54:05;;;;;;;13.68;7.93;;;;;;;;;;5113673;28;20113;-74
2021/12/14 04:56:34;;;;;;;14.35;7.78;;;;;;;;;;5095306;28;20024;-76
2021/12/14 04:59:03;;;;;;;15.65;8.10;;;;;;;;;;5117697;28;20020;-73
2021/12/14 05:01:32;;;;;;;16.05;8.68;;;;;;;;;;5099281;28;20019;-73
2021/12/14 05:04:00;;;;;;;12.35;7.10;;;;;;;;;;5099385;28;20035;-75
2021/12/14 05:06:33;;;;;;;13.13;6.97;;;;;;;;;;5099130;28;20065;-73
2021/12/14 05:09:29;;;;;;;13.55;6.78;;;;;;;;;;5095537;28;20049;-74
2021/12/14 05:11:58;;;;;;;12.85;6.78;;;;;;;;;;5095835;28;20032;-75
2021/12/14 05:14:25;;;;;;;15.25;8.38;;;;;;;;;;5095615;28;20024;-75
2021/12/14 05:16:59;;;;;;;13.65;7.43;;;;;;;;;;5097090;28;20061;-73
2021/12/14 05:19:26;;;;;;;11.88;6.95;;;;;;;;;;5095700;28;20016;-74
2021/12/14 05:21:53;;;;;;;13.43;6.88;;;;;;;;;;5096300;28;20063;-75
2021/12/14 05:24:25;;;;;;;13.77;6.95;;;;;;;;;;5095501;28;20470;-75
2021/12/14 05:26:58;;;;;;;14.52;7.22;;;;;;;;;;5095322;28;20036;-75
2021/12/14 05:29:26;;;;;;;14.02;6.70;;;;;;;;;;5096612;28;20022;-75
2021/12/14 05:31:53;;;;;;;10.70;6.28;;;;;;;;;;5095256;28;20439;-75
2021/12/14 05:34:21;;;;;;;12.25;6.32;;;;;;;;;;5096552;28;20035;-74
2021/12/14 05:36:47;;;;;;;11.15;6.15;;;;;;;;;;5095289;28;20024;-72
2021/12/14 05:44:36;;;;;;;19.08;8.82;;;;;;;;;;5096521;28;20028;-74
2021/12/14 05:47:10;;;;;;;16.42;8.10;;;;;;;;;;5095857;28;20124;-74
2021/12/14 05:49:36;;;;;;;16.90;8.15;;;;;;;;;;5095147;28;20107;-74
2021/12/14 05:52:07;;;;;;;15.02;7.68;;;;;;;;;;5094984;28;20032;-74
2021/12/14 05:54:34;;;;;;;14.73;7.90;;;;;;;;;;5095027;28;20035;-76
2021/12/14 05:57:02;;;;;;;13.77;7.63;;;;;;;;;;5096505;28;20438;-74
2021/12/14 05:59:30;;;;;;;15.23;7.75;;;;;;;;;;5094837;28;20032;-73
2021/12/14 06:01:57;;;;;;;16.60;8.20;;;;;;;;;;5096107;28;20476;-74
2021/12/14 06:04:26;;;;;;;14.82;7.05;;;;;;;;;;5095961;28;20035;-74
2021/12/14 06:06:53;;;;;;;16.65;7.57;;;;;;;;;;5094627;28;20476;-74
2021/12/14 06:09:24;;;;;;;14.80;7.57;;;;;;;;;;5093462;28;20511;-75
2021/12/14 06:12:01;;;;;;;14.10;7.37;;;;;;;;;;5094703;28;20089;-75
2021/12/14 06:14:28;;;;;;;17.48;9.30;;;;;;;;;;5085813;28;20362;-73
2021/12/14 06:16:56;;;;;;;64.35;35.20;;;;;;;;;;5085386;28;20423;-73
2021/12/14 06:19:26;;;;;;;33.05;15.52;;;;;;;;;;5086219;28;20024;-73
2021/12/14 06:21:57;;;;;;;19.08;9.73;;;;;;;;;;5095593;28;20039;-72
2021/12/14 06:24:26;;;;;;;17.65;10.07;;;;;;;;;;5094102;28;20024;-74
2021/12/14 06:26:53;;;;;;;24.02;9.93;;;;;;;;;;5095223;28;20046;-73
2021/12/14 06:29:25;;;;;;;14.68;7.03;;;;;;;;;;5094720;28;20123;-72
2021/12/14 06:31:52;;;;;;;12.60;7.05;;;;;;;;;;5094167;28;20024;-72
2021/12/14 06:34:21;;;;;;;15.18;7.47;;;;;;;;;;5094156;28;20036;-71
2021/12/14 06:36:52;;;;;;;14.80;7.88;;;;;;;;;;5093763;28;20535;-72
2021/12/14 06:39:24;;;;;;;14.43;8.15;;;;;;;;;;5093725;28;20052;-72
2021/12/14 06:41:51;;;;;;;16.60;7.83;;;;;;;;;;5096631;28;20024;-73
2021/12/14 06:44:19;;;;;;;12.25;6.70;;;;;;;;;;5093730;28;20028;-73
2021/12/14 06:46:48;;;;;;;14.60;7.25;;;;;;;;;;5092658;28;20039;-72
2021/12/14 06:49:15;;;;;;;11.93;6.43;;;;;;;;;;5094877;28;20373;-72
2021/12/14 06:51:47;;;;;;;21.25;12.35;;;;;;;;;;5086326;28;20035;-71
2021/12/14 06:54:15;;;;;;;22.25;11.95;;;;;;;;;;5095327;28;20094;-72
2021/12/14 06:56:41;;;;;;;16.10;8.52;;;;;;;;;;5093550;28;20020;-71
2021/12/14 06:59:11;;;;;;;15.20;7.15;;;;;;;;;;5094870;28;20024;-72
2021/12/14 07:01:40;;;;;;;11.18;6.32;;;;;;;;;;5095023;28;20095;-72
2021/12/14 07:04:11;;;;;;;11.98;6.57;;;;;;;;;;5093544;28;20028;-72
2021/12/14 07:06:57;;;;;;;11.50;6.53;;;;;;;;;;5093481;28;20408;-72
2021/12/14 07:09:28;;;;;;;14.27;6.97;;;;;;;;;;5093264;28;20055;-72
2021/12/14 07:12:04;;;;;;;12.27;6.68;;;;;;;;;;5093344;28;20032;-71
2021/12/14 07:14:33;;;;;;;14.77;7.65;;;;;;;;;;5094754;28;20475;-72
2021/12/14 07:17:02;;;;;;;13.80;7.43;;;;;;;;;;5094602;28;20024;-72
2021/12/14 07:19:40;;;;;;;15.15;8.00;;;;;;;;;;5092992;28;20028;-72
2021/12/14 07:22:06;;;;;;;13.05;6.55;;;;;;;;;;5094401;28;20020;-72
2021/12/14 07:24:36;;;;;;;11.20;6.60;;;;;;;;;;5094451;28;20365;-72
2021/12/14 07:27:15;;;;;;;13.10;6.32;;;;;;;;;;5094309;28;20028;-73
2021/12/14 07:29:41;;;;;;;11.90;5.97;;;;;;;;;;5094288;28;20035;-72
2021/12/14 07:32:07;;;;;;;12.93;6.53;;;;;;;;;;5094209;28;20024;-72
2021/12/14 07:34:33;;;;;;;16.00;6.65;;;;;;;;;;5094389;28;20025;-73
2021/12/14 07:37:00;;;;;;;16.33;6.70;;;;;;;;;;5092934;28;20392;-73
2021/12/14 07:39:26;;;;;;;11.32;5.65;;;;;;;;;;5094132;28;20095;-72
2021/12/14 07:41:58;;;;;;;11.05;5.65;;;;;;;;;;5092867;28;20039;-72
2021/12/14 07:44:34;;;;;;;10.32;5.47;;;;;;;;;;5094126;28;20393;-71
2021/12/14 07:47:03;;;;;;;10.07;5.30;;;;;;;;;;5092689;28;20036;-72
2021/12/14 07:49:32;;;;;;;7.72;4.18;;;;;;;;;;5094005;28;20059;-72
2021/12/14 07:51:58;;;;;;;10.57;4.70;;;;;;;;;;5092660;28;20032;-73
2021/12/14 07:54:29;;;;;;;9.35;5.00;;;;;;;;;;5094024;28;20020;-72
2021/12/14 07:57:03;;;;;;;9.95;4.72;;;;;;;;;;5092445;28;20070;-73
2021/12/14 07:59:34;;;;;;;6.82;3.90;;;;;;;;;;5094068;28;20024;-72
2021/12/14 08:02:15;;;;;;;7.38;3.97;;;;;;;;;;5093628;28;20028;-72
2021/12/14 08:04:43;;;;;;;16.20;4.00;;;;;;;;;;5091618;28;20039;-73
2021/12/14 08:07:10;;;;;;;9.35;4.50;;;;;;;;;;5093289;28;20039;-72
2021/12/14 08:09:48;;;;;;;8.88;3.95;;;;;;;;;;5110348;28;20107;-72
2021/12/14 08:12:35;;;;;;;6.72;3.28;;;;;;;;;;5095685;28;20472;-73
2021/12/14 08:15:18;;;;;;;11.00;5.20;;;;;;;;;;5095659;28;20102;-73
2021/12/14 08:17:44;;;;;;;7.53;3.63;;;;;;;;;;5113606;28;20051;-73
2021/12/14 08:20:13;;;;;;;6.10;3.13;;;;;;;;;;5113567;28;20392;-73
2021/12/14 08:22:41;;;;;;;6.35;2.90;;;;;;;;;;5095420;28;20042;-73
2021/12/14 08:25:08;;;;;;;3.95;1.92;;;;;;;;;;5095602;28;20122;-72
2021/12/14 08:27:35;;;;;;;2.78;1.52;;;;;;;;;;5095255;28;20503;-71
2021/12/14 08:30:06;;;;;;;2.78;1.55;;;;;;;;;;5095235;28;20375;-73
2021/12/14 08:32:34;;;;;;;4.05;1.83;;;;;;;;;;5094763;28;20019;-71
2021/12/14 08:35:03;;;;;;;3.53;1.42;;;;;;;;;;5113567;28;20024;-73
2021/12/14 08:37:33;;;;;;;2.17;1.35;;;;;;;;;;5095291;28;20124;-72
2021/12/14 08:40:03;;;;;;;3.47;1.33;;;;;;;;;;5114304;28;20031;-72
2021/12/14 08:42:47;;;;;;;3.92;1.65;;;;;;;;;;5113618;28;20107;-72
2021/12/14 08:45:28;;;;;;;4.32;1.55;;;;;;;;;;5095814;28;20031;-72
2021/12/14 08:47:58;;;;;;;3.65;1.30;;;;;;;;;;5095543;28;20036;-73
2021/12/14 08:50:24;;;;;;;2.78;1.20;;;;;;;;;;5095401;28;20077;-72
2021/12/14 08:52:51;;;;;;;2.55;1.13;;;;;;;;;;5078471;28;20193;-72
2021/12/14 08:55:18;;;;;;;2.28;1.13;;;;;;;;;;5113778;28;20031;-72
2021/12/14 08:57:44;;;;;;;2.38;1.15;;;;;;;;;;5095225;28;20031;-71
2021/12/14 09:00:14;;;;;;;3.00;0.93;;;;;;;;;;5095188;28;20020;-72
2021/12/14 09:02:40;;;;;;;2.00;0.60;;;;;;;;;;5095062;28;20035;-71
2021/12/14 09:05:10;;;;;;;2.38;0.90;;;;;;;;;;5094801;28;20464;-72
2021/12/14 09:07:36;;;;;;;5.78;1.55;;;;;;;;;;5094972;28;20059;-73
2021/12/14 09:10:06;;;;;;;3.20;1.77;;;;;;;;;;5113390;28;20445;-72
2021/12/14 09:12:36;;;;;;;5.38;3.17;;;;;;;;;;5095070;28;20034;-72
2021/12/14 09:15:07;;;;;;;2.65;1.02;;;;;;;;;;5095096;28;20024;-72
2021/12/14 09:17:33;;;;;;;3.63;2.00;;;;;;;;;;5113318;28;20024;-72
2021/12/14 09:20:01;;;;;;;5.75;2.17;;;;;;;;;;5094953;28;20023;-72
2021/12/14 09:22:29;;;;;;;4.70;2.03;;;;;;;;;;5094836;28;20020;-73
2021/12/14 09:24:57;;;;;;;2.72;1.27;;;;;;;;;;5094861;28;20066;-71
2021/12/14 09:27:24;;;;;;;3.65;1.02;;;;;;;;;;5094788;28;20044;-71
2021/12/14 09:29:52;;;;;;;2.50;0.98;;;;;;;;;;5113062;28;20019;-72
2021/12/14 09:32:24;;;;;;;1.27;0.77;;;;;;;;;;5094984;28;20114;-71
2021/12/14 09:34:50;;;;;;;2.80;1.13;;;;;;;;;;5113182;28;20035;-73
2021/12/14 09:37:17;;;;;;;3.55;0.90;;;;;;;;;;5094488;28;20383;-73
2021/12/14 09:39:46;;;;;;;1.73;0.90;;;;;;;;;;5094787;28;20074;-73
2021/12/14 09:42:14;;;;;;;2.83;0.82;;;;;;;;;;5094779;28;20030;-73
2021/12/14 09:44:41;;;;;;;3.05;1.05;;;;;;;;;;5096452;28;20020;-72
2021/12/14 09:47:13;;;;;;;2.38;0.93;;;;;;;;;;5098484;28;20122;-72
2021/12/14 09:49:40;;;;;;;2.25;1.17;;;;;;;;;;5081460;28;20027;-72
2021/12/14 09:52:09;;;;;;;6.70;1.60;;;;;;;;;;5098169;28;20034;-72
2021/12/14 09:54:35;;;;;;;2.58;1.10;;;;;;;;;;5116350;28;20102;-72
2021/12/14 09:57:06;;;;;;;3.38;0.90;;;;;;;;;;5098226;28;20426;-73
2021/12/14 09:59:32;;;;;;;1.90;1.02;;;;;;;;;;5097889;28;20020;-73
2021/12/14 10:02:19;;;;;;;2.45;1.27;;;;;;;;;;5116431;28;20024;-73
2021/12/14 10:04:47;;;;;;;4.53;1.83;;;;;;;;;;5116286;28;20079;-74
2021/12/14 10:07:13;;;;;;;3.97;1.38;;;;;;;;;;5098023;28;20035;-73
2021/12/14 10:09:43;;;;;;;3.90;1.48;;;;;;;;;;5094057;28;20044;-73
2021/12/14 10:14:51;;;;;;;4.43;1.45;;;;;;;;;;5095564;28;20028;-75
2021/12/14 10:17:18;;;;;;;3.15;1.30;;;;;;;;;;5094404;28;20491;-71
2021/12/14 10:19:45;;;;;;;2.83;1.45;;;;;;;;;;5095592;28;20551;-73
2021/12/14 10:22:17;;;;;;;3.28;1.20;;;;;;;;;;5095972;28;20464;-74
2021/12/14 10:24:44;;;;;;;3.38;1.40;;;;;;;;;;5095412;28;20047;-73
2021/12/14 10:27:17;;;;;;;6.90;2.50;;;;;;;;;;5095431;28;20081;-72
2021/12/14 10:29:43;;;;;;;4.53;2.25;;;;;;;;;;5094218;28;20028;-73
2021/12/14 10:32:13;;;;;;;4.25;1.30;;;;;;;;;;5095406;28;20032;-73
2021/12/14 10:34:41;;;;;;;1.58;0.82;;;;;;;;;;5095782;28;20102;-71
2021/12/14 10:37:16;;;;;;;2.63;1.15;;;;;;;;;;5095437;28;20121;-72
2021/12/14 10:45:14;;;;;;;4.75;1.00;;;;;;;;;;5104454;28;20057;-72
2021/12/14 10:47:41;;;;;;;3.70;1.30;;;;;;;;;;5095850;28;20069;-72
2021/12/14 10:50:09;;;;;;;2.40;1.20;;;;;;;;;;5095601;28;20032;-72
2021/12/14 10:52:40;;;;;;;2.42;1.10;;;;;;;;;;5096041;28;20534;-72
2021/12/14 10:55:09;;;;;;;3.42;1.42;;;;;;;;;;5096549;28;20117;-72
2021/12/14 10:57:35;;;;;;;3.35;1.27;;;;;;;;;;5096962;28;20023;-72
2021/12/14 11:00:02;;;;;;;2.35;0.98;;;;;;;;;;5096744;28;20027;-72
2021/12/14 11:02:29;;;;;;;3.50;1.10;;;;;;;;;;5096784;28;20032;-72
2021/12/14 11:04:58;;;;;;;2.55;1.27;;;;;;;;;;5096554;28;20118;-73
2021/12/14 11:07:24;;;;;;;4.95;2.00;;;;;;;;;;5094077;28;20036;-70
2021/12/14 11:09:52;;;;;;;3.65;1.65;;;;;;;;;;5072600;28;20057;-72
2021/12/14 11:12:19;;;;;;;3.53;1.20;;;;;;;;;;5073090;28;20081;-73
2021/12/14 11:14:46;;;;;;;3.35;1.30;;;;;;;;;;5072827;28;20052;-72
2021/12/14 11:20:00;;;;;;;3.83;2.00;;;;;;;;;;5074499;28;20040;-72
2021/12/14 11:22:28;;;;;;;4.40;1.80;;;;;;;;;;5074516;28;20023;-72
2021/12/14 11:25:01;;;;;;;4.70;2.33;;;;;;;;;;5072681;28;20028;-70
2021/12/14 11:27:32;;;;;;;4.78;2.20;;;;;;;;;;5072726;28;20032;-73
2021/12/14 11:30:11;;;;;;;7.50;3.42;;;;;;;;;;5074029;28;20032;-70
2021/12/14 11:32:41;;;;;;;7.43;3.10;;;;;;;;;;5072724;28;20035;-70
2021/12/14 11:35:25;;;;;;;9.93;3.80;;;;;;;;;;5072600;28;20098;-70
2021/12/14 11:37:54;;;;;;;8.93;4.38;;;;;;;;;;5072650;28;20020;-73
2021/12/14 11:40:23;;;;;;;9.43;4.90;;;;;;;;;;5072504;28;20362;-73
2021/12/14 11:42:50;;;;;;;8.65;4.18;;;;;;;;;;5072509;28;20384;-73
2021/12/14 11:45:19;;;;;;;11.45;5.00;;;;;;;;;;5082276;28;20499;-72
2021/12/14 11:47:49;;;;;;;10.68;5.22;;;;;;;;;;5093680;28;20516;-71
2021/12/14 11:50:24;;;;;;;12.63;6.35;;;;;;;;;;5093936;28;20024;-70
2021/12/14 11:52:53;;;;;;;14.75;6.93;;;;;;;;;;5092585;28;20392;-72
2021/12/14 11:55:28;;;;;;;16.75;6.35;;;;;;;;;;5092567;28;20020;-71
2021/12/14 11:58:22;;;;;;;15.80;6.45;;;;;;;;;;5083271;28;20024;-72
2021/12/14 12:00:51;;;;;;;13.07;5.88;;;;;;;;;;5091640;28;20028;-70
2021/12/14 12:03:22;;;;;;;13.50;6.03;;;;;;;;;;5092301;28;20046;-71
2021/12/14 12:06:05;;;;;;;14.38;5.95;;;;;;;;;;5092188;28;20036;-72
2021/12/14 12:11:19;;;;;;;19.38;7.70;;;;;;;;;;5093842;28;20040;-73
2021/12/14 12:13:46;;;;;;;21.80;9.38;;;;;;;;;;5092320;28;20035;-72
2021/12/14 12:16:24;;;;;;;17.20;7.57;;;;;;;;;;5092401;28;20026;-72
2021/12/14 12:19:10;;;;;;;17.92;6.68;;;;;;;;;;5093486;28;20060;-73
2021/12/14 12:21:37;;;;;;;13.27;6.45;;;;;;;;;;5092144;28;20476;-72
2021/12/14 12:24:03;;;;;;;14.18;6.43;;;;;;;;;;5092511;28;20419;-73
2021/12/14 12:26:30;;;;;;;18.95;6.97;;;;;;;;;;5093769;28;20032;-72
2021/12/14 12:29:02;;;;;;;19.42;7.97;;;;;;;;;;5092105;28;20107;-72
2021/12/14 12:31:29;;;;;;;14.75;7.05;;;;;;;;;;5093339;28;20081;-73
2021/12/14 12:33:57;;;;;;;17.15;7.20;;;;;;;;;;5091868;28;20476;-72
2021/12/14 12:36:28;;;;;;;15.80;7.15;;;;;;;;;;5091984;28;20028;-73
2021/12/14 12:39:02;;;;;;;13.50;6.63;;;;;;;;;;5092657;28;20032;-73
2021/12/14 12:41:28;;;;;;;13.90;7.05;;;;;;;;;;5090950;28;20038;-73
2021/12/14 12:44:06;;;;;;;14.32;6.90;;;;;;;;;;5091882;28;20154;-73
2021/12/14 12:46:39;;;;;;;12.90;6.07;;;;;;;;;;5071796;28;20170;-73
2021/12/14 12:49:05;;;;;;;15.05;6.30;;;;;;;;;;5073041;28;20473;-72
2021/12/14 12:51:36;;;;;;;12.13;6.40;;;;;;;;;;5071564;28;20020;-72
2021/12/14 12:54:11;;;;;;;12.07;6.93;;;;;;;;;;5073297;28;20099;-73
2021/12/14 12:56:38;;;;;;;17.02;8.55;;;;;;;;;;5071726;28;20036;-73
2021/12/14 12:59:06;;;;;;;16.25;7.60;;;;;;;;;;5072764;28;20070;-72
2021/12/14 13:01:33;;;;;;;17.42;9.45;;;;;;;;;;5072516;28;20031;-73
2021/12/14 13:03:59;;;;;;;15.40;7.40;;;;;;;;;;5071615;28;20048;-73
2021/12/14 13:06:25;;;;;;;17.90;8.38;;;;;;;;;;5071816;28;20039;-73
2021/12/14 13:08:55;;;;;;;22.55;11.18;;;;;;;;;;5070582;28;20051;-73
2021/12/14 13:11:27;;;;;;;45.30;21.33;;;;;;;;;;5071491;28;20082;-73
2021/12/14 13:13:55;;;;;;;25.65;12.25;;;;;;;;;;5073073;28;20099;-73
2021/12/14 13:16:23;;;;;;;26.95;12.20;;;;;;;;;;5072834;28;20032;-74
2021/12/14 13:18:51;;;;;;;15.10;7.13;;;;;;;;;;5079268;28;20028;-70
2021/12/14 13:21:20;;;;;;;13.68;7.35;;;;;;;;;;5095835;28;20025;-73
2021/12/14 13:23:46;;;;;;;16.33;7.07;;;;;;;;;;5096286;28;20028;-73
2021/12/14 13:26:28;;;;;;;15.55;7.90;;;;;;;;;;5096531;28;20036;-74
2021/12/14 13:28:57;;;;;;;15.95;7.65;;;;;;;;;;5096735;28;20028;-74
2021/12/14 13:31:29;;;;;;;16.38;7.63;;;;;;;;;;5096562;28;20024;-73
2021/12/14 13:33:55;;;;;;;16.10;7.07;;;;;;;;;;5095187;28;20032;-73
2021/12/14 13:36:21;;;;;;;14.68;7.40;;;;;;;;;;5096845;28;20072;-73
2021/12/14 13:38:50;;;;;;;15.05;6.63;;;;;;;;;;5096554;28;20028;-73
2021/12/14 13:41:35;;;;;;;17.75;6.97;;;;;;;;;;5096447;28;20020;-73
2021/12/14 13:44:01;;;;;;;19.45;9.07;;;;;;;;;;5096513;28;20039;-74
2021/12/14 13:46:37;;;;;;;19.45;8.85;;;;;;;;;;5094859;28;20032;-73
2021/12/14 13:49:03;;;;;;;14.88;7.72;;;;;;;;;;5096321;28;20012;-73
2021/12/14 13:51:32;;;;;;;13.75;7.40;;;;;;;;;;5096411;28;20155;-74
2021/12/14 13:53:58;;;;;;;17.10;7.78;;;;;;;;;;5096161;28;20048;-74
2021/12/14 13:56:27;;;;;;;22.58;9.30;;;;;;;;;;5094629;28;20035;-74
2021/12/14 13:58:59;;;;;;;16.00;8.68;;;;;;;;;;5096055;28;20020;-74
2021/12/14 14:01:28;;;;;;;16.60;9.73;;;;;;;;;;5094719;28;20111;-74
2021/12/14 14:03:57;;;;;;;23.88;11.43;;;;;;;;;;5094878;28;20024;-73
2021/12/14 14:06:26;;;;;;;19.92;9.43;;;;;;;;;;5095912;28;20131;-74
2021/12/14 14:09:10;;;;;;;23.30;10.20;;;;;;;;;;5103506;28;20484;-74
2021/12/14 14:11:46;;;;;;;23.55;11.85;;;;;;;;;;5106798;28;20476;-73
2021/12/14 14:14:15;;;;;;;29.52;14.70;;;;;;;;;;5097958;28;20061;-72
2021/12/14 14:16:47;;;;;;;30.48;17.65;;;;;;;;;;5115916;28;20023;-72
2021/12/14 14:19:15;;;;;;;30.63;16.42;;;;;;;;;;5097694;28;20392;-71
2021/12/14 14:21:48;;;;;;;30.67;16.92;;;;;;;;;;5115933;28;20027;-72
2021/12/14 14:24:34;;;;;;;28.45;15.10;;;;;;;;;;5097634;28;20032;-72
2021/12/14 14:27:01;;;;;;;33.60;16.67;;;;;;;;;;5115618;28;20065;-72
2021/12/14 14:29:40;;;;;;;31.48;15.10;;;;;;;;;;5114975;28;20106;-72
2021/12/14 14:32:12;;;;;;;35.78;15.88;;;;;;;;;;5116057;28;20035;-73
2021/12/14 14:34:54;;;;;;;32.47;16.05;;;;;;;;;;5097069;28;20036;-73
2021/12/14 14:37:25;;;;;;;25.52;13.45;;;;;;;;;;5115824;28;20472;-74
2021/12/14 14:39:56;;;;;;;31.08;13.52;;;;;;;;;;5115768;28;20054;-73
2021/12/14 14:42:30;;;;;;;27.27;13.57;;;;;;;;;;5115340;28;20023;-72
2021/12/14 14:44:58;;;;;;;31.30;15.13;;;;;;;;;;5096730;28;20031;-74
2021/12/14 14:47:32;;;;;;;29.80;14.52;;;;;;;;;;5114632;28;20096;-73
2021/12/14 14:50:20;;;;;;;27.95;12.65;;;;;;;;;;5115653;28;20035;-74
2021/12/14 14:52:49;;;;;;;27.67;13.95;;;;;;;;;;5097140;28;20472;-75
2021/12/14 14:55:18;;;;;;;28.48;14.60;;;;;;;;;;5097130;28;20042;-75
2021/12/14 14:57:50;;;;;;;25.17;13.80;;;;;;;;;;5115685;28;20035;-73
2021/12/14 15:00:18;;;;;;;30.13;15.07;;;;;;;;;;5097155;28;20024;-74
2021/12/14 15:02:52;;;;;;;27.13;14.25;;;;;;;;;;5096951;28;20062;-73
2021/12/14 15:05:22;;;;;;;32.67;16.05;;;;;;;;;;5097065;28;20028;-74
2021/12/14 15:07:51;;;;;;;25.70;15.02;;;;;;;;;;5096816;28;20088;-76
2021/12/14 15:10:20;;;;;;;28.08;14.60;;;;;;;;;;5096753;28;20047;-75
2021/12/14 15:13:08;;;;;;;29.05;15.85;;;;;;;;;;5096717;28;20472;-75
2021/12/14 15:15:34;;;;;;;31.27;16.00;;;;;;;;;;5096632;28;20024;-76
2021/12/14 15:18:03;;;;;;;28.15;16.13;;;;;;;;;;5115834;28;20096;-76
2021/12/14 15:20:34;;;;;;;29.70;15.65;;;;;;;;;;5096741;28;20016;-76
2021/12/14 15:23:05;;;;;;;23.38;14.70;;;;;;;;;;5096602;28;20414;-77
2021/12/14 15:25:32;;;;;;;32.45;15.57;;;;;;;;;;5096558;28;20023;-74